Time;durP1;ratioP1;P1;durP2;ratioP2;P2;SDS_P1;SDS_P2;PMS_P1;PMS_P2;Temp;Humidity;BMP_temperature;BMP_pressure;BME280_temperature;BME280_humidity;BME280_pressure;Samples;Min_cycle;Max_cycle;Signal;HPM_P1;HPM_P2
2023/12/23 00:00:19;;;;;;;;;;;19.40;57.50;;;;;;5094781;28;19924;-61
2023/12/23 00:02:44;;;;;;;;;;;19.40;57.50;;;;;;5075607;28;19924;-62
2023/12/23 00:05:10;;;;;;;;;;;19.40;57.50;;;;;;5094446;28;20003;-62
2023/12/23 00:07:35;;;;;;;;;;;19.40;57.50;;;;;;5076046;28;19974;-62
2023/12/23 00:10:04;;;;;;;;;;;19.40;57.50;;;;;;5075011;28;19970;-61
2023/12/23 00:12:30;;;;;;;;;;;19.40;57.50;;;;;;5076707;28;19924;-62
2023/12/23 00:14:55;;;;;;;;;;;19.30;57.40;;;;;;5094169;28;20030;-61
2023/12/23 00:17:21;;;;;;;;;;;19.40;57.50;;;;;;5093528;28;19924;-61
2023/12/23 00:19:46;;;;;;;;;;;19.40;57.50;;;;;;5075574;28;19932;-61
2023/12/23 00:22:12;;;;;;;;;;;19.30;57.50;;;;;;5075167;28;19935;-61
2023/12/23 00:24:38;;;;;;;;;;;19.30;57.50;;;;;;5093055;28;19927;-61
2023/12/23 00:27:03;;;;;;;;;;;19.30;58.20;;;;;;5075627;28;19924;-62
2023/12/23 00:29:29;;;;;;;;;;;19.30;57.50;;;;;;5075362;28;19951;-62
2023/12/23 00:31:54;;;;;;;;;;;19.30;57.50;;;;;;5093136;28;19924;-62
2023/12/23 00:34:20;;;;;;;;;;;19.30;57.50;;;;;;5094227;28;19924;-61
2023/12/23 00:36:45;;;;;;;;;;;19.30;57.40;;;;;;5075679;28;20023;-61
2023/12/23 00:39:11;;;;;;;;;;;19.30;57.50;;;;;;5092631;28;19932;-61
2023/12/23 00:41:37;;;;;;;;;;;19.30;57.50;;;;;;5075851;28;19925;-62
2023/12/23 00:44:03;;;;;;;;;;;19.20;57.40;;;;;;5073893;28;20290;-61
2023/12/23 00:46:28;;;;;;;;;;;19.20;57.40;;;;;;5073688;28;20030;-62
2023/12/23 00:48:54;;;;;;;;;;;19.20;58.10;;;;;;5074035;28;20358;-61
2023/12/23 00:51:20;;;;;;;;;;;19.20;57.40;;;;;;5074659;28;19928;-61
2023/12/23 00:53:45;;;;;;;;;;;19.20;57.40;;;;;;5074164;28;19971;-61
2023/12/23 00:56:11;;;;;;;;;;;19.20;57.40;;;;;;5093396;28;20250;-61
2023/12/23 00:58:36;;;;;;;;;;;19.20;57.40;;;;;;5093628;28;19924;-61
2023/12/23 01:01:02;;;;;;;;;;;19.20;57.30;;;;;;5092406;28;19930;-61
2023/12/23 01:03:28;;;;;;;;;;;19.20;57.30;;;;;;5075399;28;20015;-61
2023/12/23 01:05:53;;;;;;;;;;;19.10;57.30;;;;;;5073998;28;20019;-61
2023/12/23 01:08:19;;;;;;;;;;;19.10;57.30;;;;;;5074900;28;19967;-62
2023/12/23 01:10:44;;;;;;;;;;;19.10;57.30;;;;;;5093545;28;19924;-61
2023/12/23 01:13:10;;;;;;;;;;;19.10;57.30;;;;;;5074305;28;20481;-61
2023/12/23 01:15:35;;;;;;;;;;;19.10;57.30;;;;;;5074879;28;19925;-61
2023/12/23 01:18:01;;;;;;;;;;;19.10;57.30;;;;;;5074829;28;19936;-61
2023/12/23 01:20:27;;;;;;;;;;;19.10;57.30;;;;;;5092345;28;19924;-61
2023/12/23 01:22:52;;;;;;;;;;;19.10;57.30;;;;;;5092775;28;19924;-61
2023/12/23 01:25:18;;;;;;;;;;;19.10;57.30;;;;;;5092046;28;19928;-61
2023/12/23 01:27:43;;;;;;;;;;;19.10;57.20;;;;;;5092754;28;19930;-61
2023/12/23 01:30:09;;;;;;;;;;;19.10;57.30;;;;;;5092822;28;20023;-62
2023/12/23 01:32:35;;;;;;;;;;;19.00;57.30;;;;;;5075205;28;19927;-61
2023/12/23 01:35:00;;;;;;;;;;;19.00;57.30;;;;;;5091697;28;19924;-61
2023/12/23 01:37:26;;;;;;;;;;;19.00;57.30;;;;;;5092898;28;20014;-61
2023/12/23 01:39:51;;;;;;;;;;;19.10;57.30;;;;;;5074880;28;19924;-61
2023/12/23 01:42:16;;;;;;;;;;;19.00;57.30;;;;;;5074752;28;20322;-61
2023/12/23 01:44:42;;;;;;;;;;;19.00;57.30;;;;;;5092032;28;19931;-61
2023/12/23 01:47:07;;;;;;;;;;;19.00;57.30;;;;;;5074623;28;20329;-61
2023/12/23 01:49:33;;;;;;;;;;;19.00;57.20;;;;;;5074154;28;19964;-61
2023/12/23 01:51:58;;;;;;;;;;;19.00;57.70;;;;;;5074538;28;20337;-61
2023/12/23 01:54:24;;;;;;;;;;;19.00;57.30;;;;;;5074886;28;20013;-61
2023/12/23 01:56:50;;;;;;;;;;;19.00;57.20;;;;;;5092433;28;19931;-61
2023/12/23 01:59:18;;;;;;;;;;;19.00;57.20;;;;;;5074706;28;20384;-61
2023/12/23 02:01:44;;;;;;;;;;;19.00;57.30;;;;;;5058210;28;20277;-61
2023/12/23 02:04:09;;;;;;;;;;;19.00;57.30;;;;;;5056669;28;19931;-61
2023/12/23 02:06:35;;;;;;;;;;;19.00;57.20;;;;;;5074620;28;19924;-61
2023/12/23 02:09:01;;;;;;;;;;;18.90;57.20;;;;;;5073514;28;20034;-61
2023/12/23 02:11:35;;;;;;;;;;;18.90;57.20;;;;;;5074554;28;19931;-61
2023/12/23 02:14:02;;;;;;;;;;;18.90;57.20;;;;;;5074202;28;19931;-61
2023/12/23 02:16:28;;;;;;;;;;;18.90;57.80;;;;;;5057206;28;19928;-61
2023/12/23 02:18:53;;;;;;;;;;;18.90;57.10;;;;;;5074396;28;20286;-61
2023/12/23 02:21:19;;;;;;;;;;;18.90;57.10;;;;;;5094583;28;19931;-61
2023/12/23 02:23:44;;;;;;;;;;;18.90;57.10;;;;;;5076926;28;19931;-61
2023/12/23 02:26:10;;;;;;;;;;;18.90;57.10;;;;;;5096254;28;19931;-62
2023/12/23 02:28:35;;;;;;;;;;;18.90;57.10;;;;;;5096570;28;20337;-62
2023/12/23 02:31:01;;;;;;;;;;;18.90;57.10;;;;;;5076851;28;19924;-61
2023/12/23 02:33:26;;;;;;;;;;;18.90;57.10;;;;;;5077852;28;19924;-61
2023/12/23 02:35:52;;;;;;;;;;;18.90;57.10;;;;;;5077689;28;19924;-61
2023/12/23 02:38:21;;;;;;;;;;;18.90;57.10;;;;;;5077114;28;20026;-61
2023/12/23 02:40:47;;;;;;;;;;;18.90;57.20;;;;;;5077741;28;20318;-62
2023/12/23 02:43:12;;;;;;;;;;;18.90;57.10;;;;;;5061004;28;19981;-61
2023/12/23 02:45:38;;;;;;;;;;;18.90;57.20;;;;;;5095483;28;20007;-61
2023/12/23 02:48:05;;;;;;;;;;;18.90;57.10;;;;;;5077699;28;19920;-61
2023/12/23 02:50:31;;;;;;;;;;;18.90;57.10;;;;;;5077796;28;20033;-61
2023/12/23 02:52:57;;;;;;;;;;;18.90;57.10;;;;;;5094692;28;20367;-62
2023/12/23 02:55:23;;;;;;;;;;;19.00;57.20;;;;;;5077929;28;19925;-61
2023/12/23 02:57:48;;;;;;;;;;;19.00;57.10;;;;;;5095830;28;19920;-61
2023/12/23 03:00:14;;;;;;;;;;;18.90;57.10;;;;;;5093821;28;19924;-61
2023/12/23 03:02:39;;;;;;;;;;;18.90;57.10;;;;;;5095368;28;19931;-61
2023/12/23 03:05:05;;;;;;;;;;;19.00;57.10;;;;;;5094998;28;20398;-61
2023/12/23 03:07:31;;;;;;;;;;;19.00;57.10;;;;;;5076660;28;19985;-61
2023/12/23 03:09:56;;;;;;;;;;;19.00;57.10;;;;;;5095497;28;19928;-61
2023/12/23 03:12:22;;;;;;;;;;;18.90;57.00;;;;;;5094879;28;20015;-61
2023/12/23 03:14:47;;;;;;;;;;;19.00;57.10;;;;;;5077376;28;20384;-60
2023/12/23 03:17:13;;;;;;;;;;;19.00;57.00;;;;;;5095356;28;19928;-61
2023/12/23 03:19:40;;;;;;;;;;;19.00;57.10;;;;;;5094576;28;20043;-61
2023/12/23 03:22:06;;;;;;;;;;;19.00;57.10;;;;;;5094913;28;19924;-61
2023/12/23 03:24:31;;;;;;;;;;;19.00;57.10;;;;;;5095170;28;20338;-61
2023/12/23 03:26:56;;;;;;;;;;;19.00;57.00;;;;;;5076219;28;19964;-61
2023/12/23 03:29:22;;;;;;;;;;;19.00;57.10;;;;;;5095486;28;20269;-62
2023/12/23 03:31:47;;;;;;;;;;;19.00;57.10;;;;;;5076572;28;20020;-61
2023/12/23 03:34:13;;;;;;;;;;;19.10;57.10;;;;;;5094385;28;20272;-61
2023/12/23 03:36:38;;;;;;;;;;;19.00;57.00;;;;;;5077238;28;19924;-61
2023/12/23 03:39:04;;;;;;;;;;;19.00;57.00;;;;;;5076751;28;19924;-61
2023/12/23 03:41:29;;;;;;;;;;;19.00;57.00;;;;;;5075941;28;20027;-61
2023/12/23 03:43:55;;;;;;;;;;;19.10;57.10;;;;;;5094999;28;19951;-61
2023/12/23 03:46:20;;;;;;;;;;;19.10;57.10;;;;;;5076647;28;19978;-61
2023/12/23 03:48:46;;;;;;;;;;;19.10;57.10;;;;;;5076157;28;19963;-61
2023/12/23 03:51:12;;;;;;;;;;;19.10;57.10;;;;;;5094291;28;19928;-61
2023/12/23 03:53:37;;;;;;;;;;;19.10;57.10;;;;;;5094825;28;20269;-61
2023/12/23 03:56:03;;;;;;;;;;;19.10;57.10;;;;;;5075629;28;19931;-61
2023/12/23 03:58:28;;;;;;;;;;;19.10;57.10;;;;;;5076813;28;20356;-61
2023/12/23 04:00:54;;;;;;;;;;;19.10;57.10;;;;;;5075999;28;19924;-61
2023/12/23 04:03:19;;;;;;;;;;;19.10;57.00;;;;;;5075506;28;19928;-61
2023/12/23 04:05:45;;;;;;;;;;;19.10;57.10;;;;;;5076345;28;20011;-61
2023/12/23 04:08:11;;;;;;;;;;;19.10;57.10;;;;;;5075915;28;20575;-61
2023/12/23 04:10:36;;;;;;;;;;;19.20;57.10;;;;;;5075620;28;19931;-61
2023/12/23 04:13:02;;;;;;;;;;;19.20;57.20;;;;;;5076324;28;19924;-62
2023/12/23 04:15:27;;;;;;;;;;;19.20;57.10;;;;;;5094098;28;20016;-61
2023/12/23 04:17:53;;;;;;;;;;;19.20;57.10;;;;;;5074998;28;19935;-62
2023/12/23 04:20:19;;;;;;;;;;;19.20;57.10;;;;;;5076007;28;19932;-62
2023/12/23 04:22:44;;;;;;;;;;;19.20;57.10;;;;;;5075139;28;19928;-61
2023/12/23 04:25:10;;;;;;;;;;;19.30;57.20;;;;;;5075480;28;19977;-62
2023/12/23 04:27:35;;;;;;;;;;;19.30;57.20;;;;;;5094101;28;19978;-62
2023/12/23 04:30:01;;;;;;;;;;;19.30;57.10;;;;;;5075113;28;19924;-62
2023/12/23 04:32:26;;;;;;;;;;;19.30;57.20;;;;;;5075930;28;19936;-62
2023/12/23 04:34:54;;;;;;;;;;;19.40;57.20;;;;;;5075514;28;19924;-62
2023/12/23 04:37:19;;;;;;;;;;;19.40;57.20;;;;;;5092941;28;19920;-61
2023/12/23 04:39:45;;;;;;;;;;;19.40;57.20;;;;;;5094480;28;20363;-61
2023/12/23 04:42:10;;;;;;;;;;;19.40;57.20;;;;;;5093330;28;20464;-62
2023/12/23 04:44:36;;;;;;;;;;;19.40;57.20;;;;;;5073665;28;20383;-61
2023/12/23 04:47:01;;;;;;;;;;;19.40;57.20;;;;;;5075135;28;19977;-62
2023/12/23 04:49:27;;;;;;;;;;;19.40;57.10;;;;;;5093677;28;20279;-62
2023/12/23 04:51:52;;;;;;;;;;;19.40;57.10;;;;;;5074688;28;19924;-62
2023/12/23 04:54:18;;;;;;;;;;;19.50;57.20;;;;;;5075452;28;20281;-61
2023/12/23 04:56:43;;;;;;;;;;;19.50;57.20;;;;;;5076028;28;20045;-61
2023/12/23 04:59:08;;;;;;;;;;;19.50;57.20;;;;;;5058039;28;20368;-61
2023/12/23 05:01:34;;;;;;;;;;;19.50;57.20;;;;;;5089191;28;20016;-62
2023/12/23 05:03:59;;;;;;;;;;;19.50;57.20;;;;;;5058178;28;19986;-61
2023/12/23 05:06:25;;;;;;;;;;;19.50;57.20;;;;;;5063065;28;20295;-61
2023/12/23 05:08:50;;;;;;;;;;;19.50;57.20;;;;;;5093248;28;19931;-62
2023/12/23 05:11:16;;;;;;;;;;;19.50;57.20;;;;;;5075123;28;20353;-61
2023/12/23 05:13:41;;;;;;;;;;;19.50;57.10;;;;;;5092898;28;19931;-62
2023/12/23 05:16:07;;;;;;;;;;;19.60;57.20;;;;;;5075087;28;20439;-61
2023/12/23 05:18:32;;;;;;;;;;;19.60;57.20;;;;;;5075204;28;19924;-61
2023/12/23 05:20:58;;;;;;;;;;;19.60;57.10;;;;;;5074134;28;19924;-61
2023/12/23 05:23:23;;;;;;;;;;;19.60;57.10;;;;;;5074969;28;19994;-61
2023/12/23 05:25:50;;;;;;;;;;;19.60;57.10;;;;;;5074975;28;19931;-62
2023/12/23 05:28:16;;;;;;;;;;;19.60;57.10;;;;;;5092383;28;19969;-62
2023/12/23 05:30:41;;;;;;;;;;;19.60;57.10;;;;;;5074862;28;19928;-62
2023/12/23 05:33:07;;;;;;;;;;;19.60;57.10;;;;;;5092164;28;20386;-62
2023/12/23 05:35:32;;;;;;;;;;;19.70;57.20;;;;;;5092719;28;20477;-62
2023/12/23 05:37:58;;;;;;;;;;;19.60;57.10;;;;;;5092882;28;19935;-61
2023/12/23 05:40:23;;;;;;;;;;;19.70;57.10;;;;;;5092666;28;19970;-61
2023/12/23 05:42:49;;;;;;;;;;;19.70;57.10;;;;;;5093233;28;20363;-61
2023/12/23 05:45:14;;;;;;;;;;;19.70;57.10;;;;;;5074342;28;19924;-61
2023/12/23 05:47:40;;;;;;;;;;;19.70;57.10;;;;;;5092049;28;20363;-62
2023/12/23 05:50:06;;;;;;;;;;;19.70;57.10;;;;;;5092594;28;20319;-61
2023/12/23 05:52:31;;;;;;;;;;;19.70;57.80;;;;;;5092800;28;19924;-62
2023/12/23 05:54:57;;;;;;;;;;;19.70;57.10;;;;;;5093787;28;19924;-61
2023/12/23 05:57:22;;;;;;;;;;;19.70;57.10;;;;;;5096897;28;20462;-61
2023/12/23 05:59:48;;;;;;;;;;;19.70;57.10;;;;;;5079158;28;19928;-62
2023/12/23 06:02:13;;;;;;;;;;;19.70;57.10;;;;;;5095722;28;20425;-61
2023/12/23 06:04:39;;;;;;;;;;;19.70;57.10;;;;;;5096258;28;19924;-61
2023/12/23 06:07:04;;;;;;;;;;;19.80;57.10;;;;;;5096437;28;19955;-61
2023/12/23 06:09:30;;;;;;;;;;;19.80;57.20;;;;;;5077893;28;19935;-61
2023/12/23 06:11:55;;;;;;;;;;;19.80;57.20;;;;;;5096584;28;19959;-62
2023/12/23 06:14:21;;;;;;;;;;;19.80;57.10;;;;;;5096634;28;20005;-61
2023/12/23 06:16:46;;;;;;;;;;;19.80;57.10;;;;;;5077695;28;19930;-61
2023/12/23 06:19:12;;;;;;;;;;;19.80;57.20;;;;;;5096512;28;19924;-61
2023/12/23 06:21:39;;;;;;;;;;;19.80;57.10;;;;;;5096034;28;19924;-61
2023/12/23 06:24:05;;;;;;;;;;;19.80;57.10;;;;;;5077527;28;19977;-62
2023/12/23 06:26:30;;;;;;;;;;;19.80;57.10;;;;;;5078277;28;20279;-61
2023/12/23 06:28:56;;;;;;;;;;;19.80;57.10;;;;;;5077843;28;19967;-61
2023/12/23 06:31:22;;;;;;;;;;;19.80;57.20;;;;;;5095959;28;19924;-61
2023/12/23 06:33:47;;;;;;;;;;;19.80;57.20;;;;;;5096441;28;20442;-61
2023/12/23 06:36:13;;;;;;;;;;;19.90;57.20;;;;;;5096166;28;19932;-61
2023/12/23 06:38:38;;;;;;;;;;;19.80;57.10;;;;;;5094877;28;19928;-62
2023/12/23 06:41:07;;;;;;;;;;;19.90;57.20;;;;;;5075490;28;19947;-62
2023/12/23 06:43:32;;;;;;;;;;;19.90;57.20;;;;;;5075378;28;19924;-62
2023/12/23 06:45:58;;;;;;;;;;;19.90;57.20;;;;;;5077391;28;19928;-62
2023/12/23 06:48:23;;;;;;;;;;;19.90;57.20;;;;;;5077921;28;20025;-62
2023/12/23 06:50:49;;;;;;;;;;;19.90;57.20;;;;;;5076126;28;19928;-61
2023/12/23 06:53:14;;;;;;;;;;;19.90;57.20;;;;;;5077487;28;19924;-61
2023/12/23 06:55:40;;;;;;;;;;;19.90;57.20;;;;;;5077635;28;20291;-61
2023/12/23 06:58:06;;;;;;;;;;;19.90;57.20;;;;;;5095051;28;19924;-62
2023/12/23 07:00:32;;;;;;;;;;;19.90;57.20;;;;;;5096209;28;19931;-61
2023/12/23 07:02:57;;;;;;;;;;;19.90;57.20;;;;;;5095671;28;19928;-61
2023/12/23 07:05:23;;;;;;;;;;;19.90;57.10;;;;;;5077196;28;20014;-61
2023/12/23 07:07:48;;;;;;;;;;;19.90;57.10;;;;;;5076761;28;19931;-61
2023/12/23 07:10:14;;;;;;;;;;;19.90;57.20;;;;;;5077627;28;19967;-62
2023/12/23 07:12:40;;;;;;;;;;;20.00;57.20;;;;;;5076790;28;19931;-61
2023/12/23 07:15:09;;;;;;;;;;;20.00;57.20;;;;;;5077591;28;19924;-61
2023/12/23 07:17:35;;;;;;;;;;;20.00;57.20;;;;;;5077649;28;19924;-60
2023/12/23 07:20:00;;;;;;;;;;;20.00;57.20;;;;;;5076061;28;19938;-60
2023/12/23 07:22:28;;;;;;;;;;;20.00;57.20;;;;;;5077155;28;19978;-60
2023/12/23 07:24:53;;;;;;;;;;;20.00;57.20;;;;;;5095209;28;19924;-60
2023/12/23 07:27:19;;;;;;;;;;;20.00;57.30;;;;;;5094785;28;19970;-60
2023/12/23 07:29:44;;;;;;;;;;;20.00;57.30;;;;;;5095476;28;19924;-61
2023/12/23 07:32:10;;;;;;;;;;;20.00;57.30;;;;;;5076485;28;20019;-60
2023/12/23 07:34:35;;;;;;;;;;;20.00;57.20;;;;;;5076799;28;19928;-61
2023/12/23 07:37:01;;;;;;;;;;;20.00;57.30;;;;;;5076779;28;20006;-60
2023/12/23 07:39:26;;;;;;;;;;;20.00;57.30;;;;;;5077443;28;19924;-60
2023/12/23 07:41:53;;;;;;;;;;;20.00;57.30;;;;;;5075708;28;20371;-61
2023/12/23 07:44:18;;;;;;;;;;;20.00;57.40;;;;;;5095359;28;19932;-60
2023/12/23 07:46:44;;;;;;;;;;;20.00;57.50;;;;;;5076616;28;20336;-60
2023/12/23 07:49:09;;;;;;;;;;;20.00;57.60;;;;;;5076475;28;19931;-61
2023/12/23 07:51:35;;;;;;;;;;;20.00;57.70;;;;;;5076224;28;20355;-59
2023/12/23 07:54:00;;;;;;;;;;;20.00;57.70;;;;;;5093594;28;19924;-60
2023/12/23 07:56:27;;;;;;;;;;;20.00;57.80;;;;;;5076673;28;20412;-59
2023/12/23 07:58:52;;;;;;;;;;;20.00;58.00;;;;;;5094626;28;19977;-60
2023/12/23 08:01:18;;;;;;;;;;;20.00;58.10;;;;;;5094000;28;19928;-60
2023/12/23 08:03:43;;;;;;;;;;;20.10;58.10;;;;;;5094577;28;19931;-60
2023/12/23 08:06:09;;;;;;;;;;;20.10;58.10;;;;;;5076344;28;19935;-61
2023/12/23 08:08:34;;;;;;;;;;;20.10;58.80;;;;;;5093318;28;19924;-61
2023/12/23 08:11:00;;;;;;;;;;;20.10;58.10;;;;;;5092968;28;20007;-62
2023/12/23 08:13:26;;;;;;;;;;;20.10;58.10;;;;;;5075722;28;20077;-61
2023/12/23 08:15:52;;;;;;;;;;;20.10;58.10;;;;;;5092630;28;20426;-62
2023/12/23 08:18:17;;;;;;;;;;;20.10;58.10;;;;;;5075848;28;20070;-64
2023/12/23 08:20:44;;;;;;;;;;;20.10;58.10;;;;;;5074761;28;19924;-61
2023/12/23 08:23:09;;;;;;;;;;;20.10;58.10;;;;;;5092964;28;20375;-62
2023/12/23 08:25:34;;;;;;;;;;;20.10;58.10;;;;;;5075946;28;19931;-60
2023/12/23 08:28:00;;;;;;;;;;;20.10;58.00;;;;;;5075990;28;19920;-60
2023/12/23 08:30:25;;;;;;;;;;;20.10;58.10;;;;;;5109410;28;19931;-60
2023/12/23 08:32:51;;;;;;;;;;;20.10;58.00;;;;;;5093829;28;19978;-60
2023/12/23 08:35:19;;;;;;;;;;;20.10;58.00;;;;;;5074970;28;19924;-60
2023/12/23 08:37:45;;;;;;;;;;;20.10;58.00;;;;;;5092825;28;19920;-60
2023/12/23 08:40:11;;;;;;;;;;;20.10;58.00;;;;;;5074789;28;20339;-60
2023/12/23 08:42:36;;;;;;;;;;;20.10;57.90;;;;;;5075253;28;19931;-60
2023/12/23 08:45:02;;;;;;;;;;;20.10;58.00;;;;;;5074115;28;20431;-61
2023/12/23 08:47:27;;;;;;;;;;;20.10;58.00;;;;;;5093514;28;19924;-61
2023/12/23 08:49:53;;;;;;;;;;;20.10;58.00;;;;;;5075329;28;19985;-60
2023/12/23 08:52:18;;;;;;;;;;;20.10;58.00;;;;;;5058843;28;19973;-60
2023/12/23 08:54:44;;;;;;;;;;;20.10;58.00;;;;;;5075611;28;20085;-61
2023/12/23 08:57:09;;;;;;;;;;;20.10;58.00;;;;;;5075524;28;20015;-61
2023/12/23 08:59:35;;;;;;;;;;;20.10;58.20;;;;;;5075549;28;20261;-60
2023/12/23 09:02:02;;;;;;;;;;;20.10;58.00;;;;;;5093428;28;19986;-61
2023/12/23 09:04:28;;;;;;;;;;;20.00;57.90;;;;;;5074806;28;19924;-61
2023/12/23 09:06:54;;;;;;;;;;;20.10;57.90;;;;;;5075576;28;20019;-60
2023/12/23 09:09:20;;;;;;;;;;;20.10;57.90;;;;;;5093664;28;20027;-61
2023/12/23 09:11:45;;;;;;;;;;;20.10;57.90;;;;;;5075052;28;19924;-60
2023/12/23 09:14:11;;;;;;;;;;;20.10;57.90;;;;;;5075210;28;20203;-61
2023/12/23 09:16:36;;;;;;;;;;;20.00;57.90;;;;;;5075350;28;19931;-60
2023/12/23 09:19:03;;;;;;;;;;;20.10;57.90;;;;;;5074425;28;20010;-60
2023/12/23 09:21:28;;;;;;;;;;;20.00;57.80;;;;;;5093251;28;20451;-60
2023/12/23 09:23:54;;;;;;;;;;;20.00;57.80;;;;;;5074655;28;20050;-60
2023/12/23 09:26:20;;;;;;;;;;;20.00;57.80;;;;;;5092652;28;20011;-61
2023/12/23 09:28:45;;;;;;;;;;;20.00;57.80;;;;;;5093070;28;19927;-60
2023/12/23 09:31:10;;;;;;;;;;;20.00;57.80;;;;;;5074843;28;20694;-60
2023/12/23 09:33:36;;;;;;;;;;;20.00;57.80;;;;;;5074599;28;19970;-61
2023/12/23 09:36:02;;;;;;;;;;;20.00;57.80;;;;;;5093188;28;20360;-60
2023/12/23 09:38:27;;;;;;;;;;;20.00;57.80;;;;;;5109165;28;19960;-60
2023/12/23 09:40:53;;;;;;;;;;;20.00;57.70;;;;;;5092331;28;19977;-60
2023/12/23 09:43:18;;;;;;;;;;;20.00;57.70;;;;;;5093365;28;20358;-61
2023/12/23 09:45:44;;;;;;;;;;;20.00;57.70;;;;;;5093196;28;19924;-60
2023/12/23 09:48:09;;;;;;;;;;;20.00;57.70;;;;;;5057627;28;19920;-60
2023/12/23 09:50:35;;;;;;;;;;;20.00;57.70;;;;;;5075061;28;19931;-60
2023/12/23 09:53:00;;;;;;;;;;;20.00;57.70;;;;;;5074609;28;19924;-60
2023/12/23 09:55:26;;;;;;;;;;;20.00;57.70;;;;;;5057517;28;20394;-60
2023/12/23 09:57:51;;;;;;;;;;;20.00;57.70;;;;;;5093338;28;19920;-60
2023/12/23 10:00:17;;;;;;;;;;;20.00;57.70;;;;;;5074270;28;20391;-60
2023/12/23 10:02:42;;;;;;;;;;;20.00;57.70;;;;;;5074661;28;19924;-60
2023/12/23 10:05:08;;;;;;;;;;;20.00;57.70;;;;;;5074596;28;19924;-60
2023/12/23 10:07:33;;;;;;;;;;;20.00;57.70;;;;;;5092205;28;19963;-60
2023/12/23 10:09:59;;;;;;;;;;;20.00;57.60;;;;;;5092884;28;20036;-60
2023/12/23 10:12:24;;;;;;;;;;;20.00;57.70;;;;;;5093318;28;19924;-61
2023/12/23 10:14:50;;;;;;;;;;;20.00;57.60;;;;;;5092497;28;19924;-60
2023/12/23 10:17:16;;;;;;;;;;;20.00;57.60;;;;;;5074552;28;19924;-60
2023/12/23 10:19:42;;;;;;;;;;;20.00;57.60;;;;;;5092751;28;20406;-60
2023/12/23 10:22:07;;;;;;;;;;;20.00;57.60;;;;;;5073400;28;19924;-60
2023/12/23 10:24:35;;;;;;;;;;;20.00;57.60;;;;;;5074749;28;19924;-61
2023/12/23 10:27:01;;;;;;;;;;;20.00;57.60;;;;;;5074622;28;19944;-60
2023/12/23 10:29:26;;;;;;;;;;;20.00;57.60;;;;;;5074302;28;20433;-61
2023/12/23 10:31:53;;;;;;;;;;;20.00;57.60;;;;;;5057725;28;19924;-60
2023/12/23 10:34:20;;;;;;;;;;;20.00;57.60;;;;;;5074481;28;19995;-60
2023/12/23 10:36:46;;;;;;;;;;;20.00;57.60;;;;;;5074048;28;19931;-60
2023/12/23 10:39:37;;;;;;;;;;;20.00;57.50;;;;;;5057836;28;19924;-60
2023/12/23 10:42:03;;;;;;;;;;;20.00;57.50;;;;;;5073141;28;20355;-60
2023/12/23 10:44:29;;;;;;;;;;;20.00;57.50;;;;;;5095789;28;19985;-60
2023/12/23 10:46:55;;;;;;;;;;;20.00;57.60;;;;;;5061127;28;19924;-60
2023/12/23 10:49:21;;;;;;;;;;;20.00;57.60;;;;;;5061276;28;19933;-60
2023/12/23 10:51:46;;;;;;;;;;;20.00;57.60;;;;;;5077627;28;20383;-60
2023/12/23 10:54:12;;;;;;;;;;;20.00;57.60;;;;;;5077778;28;19924;-60
2023/12/23 10:56:39;;;;;;;;;;;20.00;57.60;;;;;;5095428;28;19924;-60
2023/12/23 10:59:04;;;;;;;;;;;20.00;57.60;;;;;;5077877;28;20001;-60
2023/12/23 11:01:31;;;;;;;;;;;20.00;57.50;;;;;;5078254;28;20422;-60
2023/12/23 11:04:00;;;;;;;;;;;20.00;57.60;;;;;;5094807;28;19931;-60
2023/12/23 11:06:26;;;;;;;;;;;20.00;57.60;;;;;;5095917;28;20077;-60
2023/12/23 11:08:51;;;;;;;;;;;20.00;57.50;;;;;;5077793;28;19924;-60
2023/12/23 11:11:17;;;;;;;;;;;20.00;57.60;;;;;;5094135;28;19930;-60
2023/12/23 11:13:42;;;;;;;;;;;20.00;57.60;;;;;;5061252;28;19924;-60
2023/12/23 11:16:10;;;;;;;;;;;20.00;57.60;;;;;;5060743;28;19927;-61
2023/12/23 11:18:41;;;;;;;;;;;20.00;57.60;;;;;;5076631;28;19928;-61
2023/12/23 11:21:17;;;;;;;;;;;19.90;57.50;;;;;;5060359;28;20394;-60
2023/12/23 11:23:42;;;;;;;;;;;19.90;57.50;;;;;;5095807;28;20435;-60
2023/12/23 11:26:28;;;;;;;;;;;19.90;57.50;;;;;;5076830;28;20010;-60
2023/12/23 11:28:53;;;;;;;;;;;19.90;57.50;;;;;;5094971;28;20290;-61
2023/12/23 11:31:19;;;;;;;;;;;19.90;57.50;;;;;;5095626;28;19928;-61
2023/12/23 11:33:44;;;;;;;;;;;19.90;57.50;;;;;;5060075;28;19931;-60
2023/12/23 11:36:10;;;;;;;;;;;19.90;57.50;;;;;;5077264;28;19931;-60
2023/12/23 11:38:50;;;;;;;;;;;19.90;57.50;;;;;;5077338;28;19931;-60
2023/12/23 11:41:16;;;;;;;;;;;19.90;57.60;;;;;;5076862;28;20321;-61
2023/12/23 11:43:41;;;;;;;;;;;19.90;57.50;;;;;;5076841;28;19931;-60
2023/12/23 11:46:07;;;;;;;;;;;19.90;57.50;;;;;;5076089;28;19928;-60
2023/12/23 11:48:32;;;;;;;;;;;19.80;57.50;;;;;;5095059;28;19930;-60
2023/12/23 11:50:58;;;;;;;;;;;19.80;57.40;;;;;;5076614;28;19924;-60
2023/12/23 11:53:24;;;;;;;;;;;19.90;57.50;;;;;;5059175;28;19924;-60
2023/12/23 11:55:49;;;;;;;;;;;19.90;57.50;;;;;;5076770;28;19924;-60
2023/12/23 11:58:16;;;;;;;;;;;19.80;57.40;;;;;;5074883;28;19930;-60
2023/12/23 12:00:42;;;;;;;;;;;19.80;57.40;;;;;;5109852;28;19924;-60
2023/12/23 12:03:09;;;;;;;;;;;19.80;57.40;;;;;;5076237;28;19924;-60
2023/12/23 12:05:34;;;;;;;;;;;19.80;57.40;;;;;;5060021;28;20015;-60
2023/12/23 12:08:00;;;;;;;;;;;19.80;57.40;;;;;;5093761;28;20011;-60
2023/12/23 12:10:26;;;;;;;;;;;19.80;57.40;;;;;;5076448;28;19931;-60
2023/12/23 12:12:52;;;;;;;;;;;19.80;57.40;;;;;;5076284;28;20363;-60
2023/12/23 12:15:17;;;;;;;;;;;19.80;57.30;;;;;;5059053;28;20395;-60
2023/12/23 12:17:43;;;;;;;;;;;19.80;57.40;;;;;;5094398;28;19927;-60
2023/12/23 12:20:08;;;;;;;;;;;19.80;57.40;;;;;;5093261;28;19927;-60
2023/12/23 12:22:34;;;;;;;;;;;19.80;57.30;;;;;;5075437;28;20364;-60
2023/12/23 12:24:59;;;;;;;;;;;19.80;57.40;;;;;;5076284;28;19928;-60
2023/12/23 12:27:25;;;;;;;;;;;19.80;57.40;;;;;;5093496;28;20348;-61
2023/12/23 12:29:52;;;;;;;;;;;19.80;57.40;;;;;;5109852;28;19924;-61
2023/12/23 12:32:17;;;;;;;;;;;19.80;57.40;;;;;;5076039;28;20375;-60
2023/12/23 12:34:43;;;;;;;;;;;19.80;57.40;;;;;;5094206;28;20384;-61
2023/12/23 12:37:08;;;;;;;;;;;19.80;57.40;;;;;;5075327;28;19934;-60
2023/12/23 12:39:34;;;;;;;;;;;19.80;57.40;;;;;;5075184;28;20352;-61
2023/12/23 12:41:59;;;;;;;;;;;19.80;57.30;;;;;;5092498;28;20014;-60
2023/12/23 12:44:25;;;;;;;;;;;19.80;57.30;;;;;;5075375;28;20385;-60
2023/12/23 12:46:54;;;;;;;;;;;19.80;57.30;;;;;;5075867;28;20011;-61
2023/12/23 12:49:22;;;;;;;;;;;19.80;57.30;;;;;;5075273;28;20018;-60
2023/12/23 12:51:49;;;;;;;;;;;19.80;57.30;;;;;;5075656;28;19924;-60
2023/12/23 12:54:15;;;;;;;;;;;19.80;57.30;;;;;;5075330;28;20391;-60
2023/12/23 12:56:40;;;;;;;;;;;19.90;57.30;;;;;;5093014;28;20341;-60
2023/12/23 12:59:06;;;;;;;;;;;19.90;57.30;;;;;;5075442;28;19924;-60
2023/12/23 13:01:31;;;;;;;;;;;19.80;57.20;;;;;;5076320;28;19931;-60
2023/12/23 13:03:57;;;;;;;;;;;19.90;57.30;;;;;;5092107;28;20354;-61
2023/12/23 13:06:22;;;;;;;;;;;19.90;57.30;;;;;;5075592;28;20390;-60
2023/12/23 13:08:48;;;;;;;;;;;19.90;57.20;;;;;;5075662;28;19924;-60
2023/12/23 13:11:14;;;;;;;;;;;19.90;57.20;;;;;;5092511;28;19935;-60
2023/12/23 13:13:40;;;;;;;;;;;19.90;57.20;;;;;;5093794;28;20002;-61
2023/12/23 13:16:06;;;;;;;;;;;19.90;57.20;;;;;;5075147;28;19928;-61
2023/12/23 13:18:31;;;;;;;;;;;19.90;57.20;;;;;;5074523;28;20016;-61
2023/12/23 13:20:57;;;;;;;;;;;19.90;57.10;;;;;;5092972;28;19931;-61
2023/12/23 13:23:22;;;;;;;;;;;19.90;57.10;;;;;;5075302;28;19924;-61
2023/12/23 13:25:49;;;;;;;;;;;19.90;57.10;;;;;;5074318;28;20447;-60
2023/12/23 13:28:15;;;;;;;;;;;19.90;57.10;;;;;;5092979;28;19967;-61
2023/12/23 13:30:41;;;;;;;;;;;19.90;57.10;;;;;;5093236;28;20411;-60
2023/12/23 13:33:07;;;;;;;;;;;20.00;57.20;;;;;;5074120;28;19931;-61
2023/12/23 13:35:33;;;;;;;;;;;20.00;57.90;;;;;;5093318;28;19964;-61
2023/12/23 13:37:59;;;;;;;;;;;20.00;57.10;;;;;;5074927;28;19968;-60
2023/12/23 13:40:25;;;;;;;;;;;20.00;57.20;;;;;;5074401;28;20019;-61
2023/12/23 13:42:50;;;;;;;;;;;20.00;57.20;;;;;;5075137;28;20034;-61
2023/12/23 13:45:15;;;;;;;;;;;20.00;57.10;;;;;;5074785;28;19924;-61
2023/12/23 13:47:41;;;;;;;;;;;20.00;57.10;;;;;;5074543;28;19924;-60
2023/12/23 13:50:07;;;;;;;;;;;20.00;57.10;;;;;;5074476;28;19920;-61
2023/12/23 13:52:33;;;;;;;;;;;20.00;57.10;;;;;;5074434;28;19924;-61
2023/12/23 13:54:58;;;;;;;;;;;20.00;57.00;;;;;;5092837;28;19924;-61
2023/12/23 13:57:25;;;;;;;;;;;20.10;57.10;;;;;;5093250;28;19963;-61
2023/12/23 13:59:51;;;;;;;;;;;20.00;57.00;;;;;;5092543;28;19924;-61
2023/12/23 14:02:16;;;;;;;;;;;20.00;57.00;;;;;;5075414;28;19932;-61
2023/12/23 14:04:42;;;;;;;;;;;20.00;57.00;;;;;;5093086;28;19924;-61
2023/12/23 14:07:07;;;;;;;;;;;20.00;57.00;;;;;;5074066;28;19932;-61